Latest Weather Observations for Kingscote

IDS60801

Issued at 9:01 pm CDT Monday 16 January 2017 (issued every 30 minutes, with the page automatically refreshed every 10 minutes)

About weather observations | Map of weather stations | Latest weather observations for SA | Other Formats
Station Details ID: 022841 Name: KINGSCOTE AERO Lat: -35.71 Lon: 137.52 Height: 6.23 m
Data from the previous 72 hours. | See also: Recent months at Kingscote
Date/Time
CDT
Temp
°C
App
Temp
°C
Dew
Point
°C
Rel
Hum
%
Delta-T
°C
Wind Press
QNH
hPa
Press
MSL
hPa
Rain since
9am
mm
Dir  Spd
km/h
Gust
km/h
Spd
kts
Gust
kts
16/09:00pm 24.1 24.5 14.8 56 5.5 S 6 6 3 3 1009.5 1009.6 0.0
16/08:30pm 25.2 26.4 15.8 56 5.7 SE 4 9 2 5 1009.5 1009.5 0.0
16/08:00pm 27.3 27.3 12.5 40 8.6 SSE 4 9 2 5 1009.3 1009.3 0.0
16/07:30pm 28.8 28.2 12.2 35 9.7 ENE 7 11 4 6 1008.9 1008.9 0.0
16/07:00pm 29.6 26.5 10.2 30 11.0 NNE 17 24 9 13 1008.5 1008.5 0.0
16/06:30pm 31.3 28.4 9.5 26 12.3 N 15 20 8 11 1008.4 1008.4 0.0
16/06:00pm 31.3 28.0 9.5 26 12.3 N 17 24 9 13 1008.5 1008.5 0.0
16/05:30pm 30.6 27.2 11.1 30 11.3 N 20 30 11 16 1008.6 1008.6 0.0
16/05:00pm 30.8 26.6 11.2 30 11.3 N 24 33 13 18 1008.9 1008.9 0.0
16/04:30pm 31.3 27.3 11.7 30 11.5 N 24 32 13 17 1008.9 1008.9 0.0
16/04:00pm 31.1 27.2 12.0 31 11.2 NNE 24 30 13 16 1009.2 1009.2 0.0
16/03:30pm 30.9 28.3 16.9 43 8.8 NE 26 32 14 17 1009.5 1009.5 0.0
16/03:00pm 30.0 27.7 15.7 42 8.8 NNE 22 30 12 16 1009.9 1009.9 0.0
16/02:30pm 29.8 26.9 15.1 40 9.0 NNE 24 30 13 16 1010.3 1010.3 0.0
16/02:00pm 31.4 28.9 11.2 29 11.7 N 15 24 8 13 1010.7 1010.7 0.0
16/01:30pm 30.9 28.1 11.3 30 11.4 N 17 30 9 16 1010.9 1010.9 0.0
16/01:00pm 29.7 26.9 11.2 31 10.6 NNW 17 26 9 14 1011.4 1011.4 0.0
16/12:30pm 29.4 28.1 15.9 44 8.4 N 17 26 9 14 1011.7 1011.7 0.0
16/12:00pm 27.5 25.7 15.5 48 7.3 NNE 19 28 10 15 1011.9 1011.9 0.0
16/11:30am 26.4 24.8 16.1 53 6.3 NE 19 24 10 13 1012.1 1012.1 0.0
16/11:00am 25.4 24.1 15.7 55 5.9 NE 17 24 9 13 1012.6 1012.6 0.0
16/10:30am 24.6 23.2 16.6 61 4.9 NE 19 24 10 13 1013.0 1013.0 0.0
16/10:00am 23.3 21.3 15.4 61 4.7 NE 20 26 11 14 1013.1 1013.1 0.0
16/09:30am 23.0 21.3 15.8 64 4.3 NE 19 26 10 14 1013.2 1013.2 0.0
16/09:00am 21.5 22.8 17.1 76 2.7 NE 6 15 3 8 1013.3 1013.3 0.0
16/08:30am 17.4 19.2 15.4 88 1.2 CALM 0 0 0 0 1013.6 1013.6 0.0
16/08:00am 15.2 16.5 14.2 94 0.6 CALM 0 0 0 0 1013.3 1013.3 0.0
16/07:30am 13.1 13.8 12.3 95 0.4 CALM 0 0 0 0 1013.3 1013.3 0.0
16/07:00am 11.7 12.1 11.1 96 0.3 CALM 0 0 0 0 1013.2 1013.2 0.0
16/06:30am 10.9 11.0 10.1 95 0.4 CALM 0 0 0 0 1013.2 1013.2 0.0
16/06:00am 11.1 11.3 10.5 96 0.3 CALM 0 0 0 0 1013.2 1013.2 0.0
16/05:30am 11.4 11.7 10.8 96 0.3 CALM 0 0 0 0 1013.3 1013.3 0.0
16/05:00am 11.5 11.7 10.7 95 0.4 CALM 0 0 0 0 1013.2 1013.2 0.0
16/04:30am 11.7 12.0 10.9 95 0.4 CALM 0 0 0 0 1013.1 1013.1 0.0
16/04:00am 11.4 11.6 10.5 94 0.5 CALM 0 0 0 0 1013.1 1013.1 0.0
16/03:30am 12.3 12.7 11.4 94 0.5 CALM 0 0 0 0 1013.4 1013.4 0.0
16/03:00am 12.5 11.3 11.6 94 0.5 S 9 11 5 6 1013.7 1013.7 0.0
16/02:30am 12.1 10.8 11.2 94 0.5 S 9 11 5 6 1013.9 1013.9 0.0
16/02:00am 12.4 11.2 11.5 94 0.5 S 9 11 5 6 1014.1 1014.1 0.0
16/01:30am 12.0 10.6 10.9 93 0.6 S 9 11 5 6 1014.5 1014.5 0.0
16/01:00am 12.4 11.4 11.1 92 0.7 S 7 9 4 5 1014.9 1014.9 0.0
16/12:30am 12.8 11.9 11.4 91 0.7 SSE 7 7 4 4 1015.1 1015.1 0.0
16/12:00am 13.6 12.8 11.8 89 1.0 SSE 7 9 4 5 1015.2 1015.2 0.0
 
Date/Time
CDT
Temp
°C
App
Temp
°C
Dew
Point
°C
Rel
Hum
%
Delta-T
°C
Wind Press
QNH
hPa
Press
MSL
hPa
Rain since
9am
mm
Dir  Spd
km/h
Gust
km/h
Spd
kts
Gust
kts
15/11:30pm 14.0 12.9 11.9 87 1.1 SSE 9 9 5 5 1015.5 1015.5 0.0
15/11:00pm 14.8 14.2 12.3 85 1.4 SSE 7 7 4 4 1016.0 1016.0 0.0
15/10:30pm 15.0 14.6 12.3 84 1.5 SSE 6 9 3 5 1016.0 1016.0 0.0
15/10:00pm 15.4 14.4 12.2 81 1.7 SE 9 11 5 6 1016.1 1016.1 0.0
15/09:30pm 16.1 14.4 12.5 79 2.0 SE 13 15 7 8 1016.4 1016.4 0.0
15/09:00pm 16.6 14.4 12.2 75 2.4 SE 15 19 8 10 1016.5 1016.5 0.0
15/08:30pm 17.6 15.1 12.3 71 2.9 SE 17 22 9 12 1016.7 1016.7 0.0
15/08:00pm 18.7 15.8 12.2 66 3.6 SE 19 24 10 13 1016.5 1016.5 0.0
15/07:30pm 19.5 16.4 12.3 63 4.0 SE 20 28 11 15 1016.5 1016.5 0.0
15/07:00pm 20.2 17.2 12.7 62 4.2 SSE 20 28 11 15 1016.4 1016.4 0.0
15/06:30pm 21.1 18.2 12.8 59 4.7 SSE 20 30 11 16 1016.3 1016.3 0.0
15/06:00pm 21.4 18.4 12.5 57 5.0 SE 20 26 11 14 1016.6 1016.6 0.0
15/05:30pm 22.1 19.7 12.6 55 5.4 ESE 17 24 9 13 1016.7 1016.7 0.0
15/05:00pm 21.8 18.7 12.1 54 5.5 SE 20 26 11 14 1017.0 1017.0 0.0
15/04:30pm 22.7 20.0 12.9 54 5.6 SE 19 28 10 15 1017.3 1017.3 0.0
15/04:00pm 22.4 19.4 11.8 51 6.0 SE 19 26 10 14 1017.4 1017.4 0.0
15/03:30pm 23.1 20.5 13.8 55 5.4 ESE 20 30 11 16 1017.6 1017.6 0.0
15/03:00pm 22.4 19.3 12.1 52 5.8 SE 20 35 11 19 1017.9 1017.9 0.0
15/02:30pm 23.8 21.4 13.9 54 5.8 E 19 28 10 15 1018.0 1018.0 0.0
15/02:00pm 22.9 20.1 12.5 52 5.9 E 19 26 10 14 1018.2 1018.2 0.0
15/01:30pm 22.3 20.0 11.7 51 5.9 ESE 15 22 8 12 1018.6 1018.6 0.0
15/01:00pm 22.4 21.7 12.1 52 5.8 WSW 7 11 4 6 1019.0 1019.0 0.0
15/12:30pm 22.0 20.9 12.0 53 5.6 NE 9 20 5 11 1019.2 1019.2 0.0
15/12:00pm 20.7 19.9 11.1 54 5.3 SSE 6 11 3 6 1019.6 1019.6 0.0
15/11:30am 20.6 18.7 11.8 57 4.9 N 13 19 7 10 1019.9 1019.9 0.0
15/11:00am 19.4 17.3 11.2 59 4.5 SE 13 20 7 11 1020.2 1020.2 0.0
15/10:30am 18.6 16.9 11.2 62 4.0 E 11 17 6 9 1020.3 1020.3 0.0
15/10:00am 18.1 16.5 10.2 60 4.2 SSW 9 13 5 7 1020.6 1020.6 0.0
15/09:30am 18.0 17.5 10.6 62 4.0 SW 4 9 2 5 1020.9 1020.9 0.0
15/09:00am 17.5 16.8 11.3 67 3.3 NW 6 9 3 5 1020.8 1020.8 0.0
15/08:30am 17.1 16.2 11.2 68 3.2 E 7 15 4 8 1020.5 1020.5 0.0
15/08:00am 16.8 15.0 10.9 68 3.2 ESE 11 15 6 8 1020.2 1020.2 0.0
15/07:30am 16.6 15.4 11.5 72 2.8 SSE 9 11 5 6 1020.1 1020.1 0.0
15/07:00am 16.2 14.9 11.4 73 2.6 S 9 9 5 5 1019.8 1019.8 0.0
15/06:30am 16.2 15.0 11.6 74 2.5 S 9 11 5 6 1019.5 1019.5 0.0
15/06:00am 16.2 15.3 11.4 73 2.6 SSW 7 9 4 5 1019.1 1019.1 0.0
15/05:30am 16.3 14.5 10.8 70 2.9 SE 11 15 6 8 1018.7 1018.7 0.0
15/05:00am 16.2 14.3 10.5 69 3.0 SE 11 20 6 11 1018.7 1018.7 0.0
15/04:30am 16.1 14.2 10.6 70 2.9 SE 11 15 6 8 1018.3 1018.3 0.0
15/04:00am 16.3 14.2 11.0 71 2.8 SSE 13 17 7 9 1018.4 1018.4 0.0
15/03:30am 16.3 14.5 11.0 71 2.8 S 11 15 6 8 1018.4 1018.4 0.0
15/03:00am 16.4 15.1 11.3 72 2.7 S 9 17 5 9 1018.5 1018.5 0.0
15/02:30am 16.4 14.3 11.1 71 2.8 S 13 17 7 9 1018.6 1018.6 0.0
15/02:00am 16.4 13.9 11.1 71 2.8 SSE 15 20 8 11 1018.7 1018.7 0.0
15/01:30am 16.5 13.7 11.2 71 2.8 S 17 20 9 11 1018.9 1018.9 0.0
15/01:00am 16.4 13.6 11.3 72 2.7 SSE 17 20 9 11 1018.9 1018.9 0.0
15/12:30am 16.6 13.8 11.5 72 2.8 SSE 17 24 9 13 1019.2 1019.2 0.0
15/12:00am 16.7 13.9 11.4 71 2.9 S 17 24 9 13 1019.3 1019.3 0.0
 
Date/Time
CDT
Temp
°C
App
Temp
°C
Dew
Point
°C
Rel
Hum
%
Delta-T
°C
Wind Press
QNH
hPa
Press
MSL
hPa
Rain since
9am
mm
Dir  Spd
km/h
Gust
km/h
Spd
kts
Gust
kts
14/11:30pm 16.6 14.5 12.4 76 2.3 S 15 19 8 10 1019.2 1019.2 0.0
14/11:00pm 16.9 13.5 11.2 69 3.1 S 20 26 11 14 1019.2 1019.2 0.0
14/10:30pm 17.1 14.3 11.4 69 3.1 S 17 24 9 13 1019.3 1019.3 0.0
14/10:00pm 17.1 14.6 11.2 68 3.2 S 15 19 8 10 1019.2 1019.2 0.0
14/09:30pm 17.1 14.3 11.4 69 3.1 S 17 22 9 12 1019.1 1019.1 0.0
14/09:00pm 17.0 13.8 11.9 72 2.8 S 20 26 11 14 1019.1 1019.1 0.0
14/08:30pm 17.5 14.7 11.3 67 3.4 S 17 24 9 13 1018.6 1018.6 0.0
14/08:00pm 17.8 14.7 11.6 67 3.4 SSW 19 24 10 13 1018.3 1018.3 0.0
14/07:30pm 18.0 14.6 11.1 64 3.7 SSW 20 30 11 16 1018.2 1018.2 0.0
14/07:00pm 18.5 14.6 10.8 61 4.2 SSW 22 28 12 15 1018.1 1018.1 0.0
14/06:30pm 18.7 14.7 10.5 59 4.4 SSW 22 30 12 16 1017.8 1017.8 0.0
14/06:00pm 18.9 14.7 11.2 61 4.2 SSW 24 33 13 18 1017.8 1017.8 0.0
14/05:30pm 19.2 15.0 11.0 59 4.5 S 24 33 13 18 1017.9 1017.9 0.0
14/05:00pm 19.2 14.9 12.2 64 3.9 S 26 37 14 20 1017.9 1017.9 0.0
14/04:30pm 20.3 15.7 11.2 56 5.0 S 26 35 14 19 1017.6 1017.6 0.0
14/04:00pm 20.5 15.2 10.0 51 5.6 S 28 41 15 22 1017.6 1017.6 0.0
14/03:30pm 21.4 17.1 10.6 50 5.9 SSW 24 35 13 19 1017.6 1017.6 0.0
14/03:00pm 20.6 15.7 9.8 50 5.8 SSW 26 37 14 20 1017.4 1017.4 0.0
14/02:30pm 21.4 16.4 11.1 52 5.7 S 28 35 15 19 1017.1 1017.1 0.0
14/02:00pm 20.5 14.7 10.9 54 5.3 SSW 32 43 17 23 1016.9 1016.9 0.0
14/01:30pm 21.4 17.2 9.6 47 6.3 SW 22 32 12 17 1016.7 1016.7 0.0
14/01:00pm 21.6 16.7 10.1 48 6.2 SSW 26 37 14 20 1016.7 1016.7 0.0
14/12:30pm 20.7 15.5 10.2 51 5.7 SSW 28 41 15 22 1016.4 1016.4 0.0
14/12:00pm 20.8 15.6 10.3 51 5.7 SSW 28 41 15 22 1016.2 1016.2 0.0
14/11:30am 20.1 14.8 9.7 51 5.5 SSW 28 37 15 20 1015.9 1015.9 0.0
14/11:00am 19.7 14.0 11.2 58 4.7 SSW 32 41 17 22 1015.7 1015.7 0.0
14/10:30am 18.8 13.3 10.6 59 4.4 SSW 30 41 16 22 1015.4 1015.4 0.0
14/10:00am 18.5 12.8 11.3 63 3.9 SW 32 41 17 22 1015.1 1015.1 0.0
14/09:30am 19.1 13.4 9.9 55 4.9 SW 30 39 16 21 1014.9 1014.9 0.0
14/09:00am 18.5 13.3 10.3 59 4.4 SW 28 37 15 20 1014.8 1014.8 0.2
14/08:30am 18.1 14.4 11.4 65 3.6 WSW 22 30 12 16 1014.4 1014.4 0.2
14/08:00am 17.0 13.6 11.1 68 3.2 WSW 20 24 11 13 1014.3 1014.3 0.2
14/07:30am 16.7 13.7 10.5 67 3.3 WSW 17 22 9 12 1013.9 1013.9 0.2
14/07:00am 16.0 13.9 11.0 72 2.7 W 13 17 7 9 1013.5 1013.5 0.2
14/06:30am 15.7 13.4 10.5 71 2.7 W 13 19 7 10 1013.0 1013.0 0.2
14/06:00am 15.5 14.0 10.5 72 2.6 W 9 13 5 7 1012.7 1012.7 0.2
14/05:30am 15.1 12.9 10.7 75 2.3 W 13 19 7 10 1012.5 1012.5 0.2
14/05:00am 14.9 13.1 10.7 76 2.2 W 11 15 6 8 1012.2 1012.2 0.2
14/04:30am 15.1 13.8 11.3 78 2.0 W 9 13 5 7 1011.9 1011.9 0.2
14/04:00am 15.1 13.0 11.3 78 2.0 W 13 17 7 9 1011.7 1011.7 0.2
14/03:30am 15.7 12.9 11.3 75 2.4 W 17 22 9 12 1011.5 1011.5 0.2
14/03:00am 15.5 13.0 11.1 75 2.4 W 15 22 8 12 1011.5 1011.5 0.2
14/02:30am 15.6 12.3 11.0 74 2.5 WSW 19 24 10 13 1011.4 1011.4 0.2
14/02:00am 14.3 12.6 11.1 81 1.7 WNW 11 19 6 10 1011.7 1011.7 0.2
14/01:30am 14.0 12.2 11.0 82 1.6 NW 11 13 6 7 1011.6 1011.6 0.2
14/01:00am 13.9 12.6 11.1 83 1.5 WNW 9 11 5 6 1011.5 1011.5 0.2
14/12:30am 14.4 12.6 10.8 79 1.9 WNW 11 13 6 7 1011.4 1011.4 0.2
14/12:00am 14.6 12.4 10.8 78 2.0 WNW 13 15 7 8 1011.4 1011.4 0.2
 
Date/Time
CDT
Temp
°C
App
Temp
°C
Dew
Point
°C
Rel
Hum
%
Delta-T
°C
Wind Press
QNH
hPa
Press
MSL
hPa
Rain since
9am
mm
Dir  Spd
km/h
Gust
km/h
Spd
kts
Gust
kts
13/11:30pm 14.6 12.3 10.6 77 2.1 NW 13 15 7 8 1011.2 1011.2 0.2
13/11:00pm 15.3 13.0 10.5 73 2.5 W 13 15 7 8 1011.0 1011.0 0.2
13/10:30pm 15.5 13.2 10.5 72 2.6 W 13 15 7 8 1010.8 1010.8 0.2
13/10:00pm 16.4 12.7 10.3 67 3.2 WSW 20 28 11 15 1010.6 1010.6 0.2
13/09:30pm 17.2 13.7 11.0 67 3.3 WSW 20 33 11 18 1010.1 1010.1 0.2

Other Formats:

Comma delimited format used in spreadsheet applications
http://www.bom.gov.au/fwo/IDS60801/IDS60801.95807.axf

JavaScript Object Notation format (JSON) in row-major order
http://www.bom.gov.au/fwo/IDS60801/IDS60801.95807.json